sensor_id;sensor_type;location;lat;lon;timestamp;temperature;humidity
63371;DHT22;72561;48.336;14.472;2024-02-16T00:01:29;23.80;39.60
63371;DHT22;72561;48.336;14.472;2024-02-16T00:03:10;23.80;39.60
63371;DHT22;72561;48.336;14.472;2024-02-16T00:04:51;23.80;39.60
63371;DHT22;72561;48.336;14.472;2024-02-16T00:06:32;23.90;39.70
63371;DHT22;72561;48.336;14.472;2024-02-16T00:08:13;23.80;39.60
63371;DHT22;72561;48.336;14.472;2024-02-16T00:09:55;23.80;39.60
63371;DHT22;72561;48.336;14.472;2024-02-16T00:11:36;23.80;39.60
63371;DHT22;72561;48.336;14.472;2024-02-16T00:13:18;23.80;39.50
63371;DHT22;72561;48.336;14.472;2024-02-16T00:15:01;23.80;39.50
63371;DHT22;72561;48.336;14.472;2024-02-16T00:16:43;23.80;39.60
63371;DHT22;72561;48.336;14.472;2024-02-16T00:18:24;23.80;39.60
63371;DHT22;72561;48.336;14.472;2024-02-16T00:20:06;23.80;39.60
63371;DHT22;72561;48.336;14.472;2024-02-16T00:21:48;23.80;39.60
63371;DHT22;72561;48.336;14.472;2024-02-16T00:23:29;23.70;39.50
63371;DHT22;72561;48.336;14.472;2024-02-16T00:25:10;23.80;39.60
63371;DHT22;72561;48.336;14.472;2024-02-16T00:26:51;23.80;39.60
63371;DHT22;72561;48.336;14.472;2024-02-16T00:28:32;23.70;39.50
63371;DHT22;72561;48.336;14.472;2024-02-16T00:30:15;23.80;39.60
63371;DHT22;72561;48.336;14.472;2024-02-16T00:31:56;23.70;39.50
63371;DHT22;72561;48.336;14.472;2024-02-16T00:33:37;23.80;39.60
63371;DHT22;72561;48.336;14.472;2024-02-16T00:35:18;23.70;39.50
63371;DHT22;72561;48.336;14.472;2024-02-16T00:37:00;23.70;39.50
63371;DHT22;72561;48.336;14.472;2024-02-16T00:38:41;23.70;39.50
63371;DHT22;72561;48.336;14.472;2024-02-16T00:40:22;23.70;39.50
63371;DHT22;72561;48.336;14.472;2024-02-16T00:42:04;23.70;39.50
63371;DHT22;72561;48.336;14.472;2024-02-16T00:43:45;23.70;39.50
63371;DHT22;72561;48.336;14.472;2024-02-16T00:45:28;23.70;39.50
63371;DHT22;72561;48.336;14.472;2024-02-16T00:47:09;23.70;39.50
63371;DHT22;72561;48.336;14.472;2024-02-16T00:48:50;23.70;39.60
63371;DHT22;72561;48.336;14.472;2024-02-16T00:50:31;23.70;39.50
63371;DHT22;72561;48.336;14.472;2024-02-16T00:52:13;23.70;39.50
63371;DHT22;72561;48.336;14.472;2024-02-16T00:53:54;23.70;39.50
63371;DHT22;72561;48.336;14.472;2024-02-16T00:55:35;23.70;39.50
63371;DHT22;72561;48.336;14.472;2024-02-16T00:57:16;23.70;39.50
63371;DHT22;72561;48.336;14.472;2024-02-16T00:58:57;23.70;39.60
63371;DHT22;72561;48.336;14.472;2024-02-16T01:00:40;23.70;39.50
63371;DHT22;72561;48.336;14.472;2024-02-16T01:02:21;23.70;39.60
63371;DHT22;72561;48.336;14.472;2024-02-16T01:04:03;23.70;39.50
63371;DHT22;72561;48.336;14.472;2024-02-16T01:05:44;23.70;39.50
63371;DHT22;72561;48.336;14.472;2024-02-16T01:07:25;23.60;39.40
63371;DHT22;72561;48.336;14.472;2024-02-16T01:09:06;23.60;39.40
63371;DHT22;72561;48.336;14.472;2024-02-16T01:10:47;23.60;39.40
63371;DHT22;72561;48.336;14.472;2024-02-16T01:12:29;23.60;39.50
63371;DHT22;72561;48.336;14.472;2024-02-16T01:14:10;23.60;39.50
63371;DHT22;72561;48.336;14.472;2024-02-16T01:15:52;23.60;39.50
63371;DHT22;72561;48.336;14.472;2024-02-16T01:17:33;23.60;39.50
63371;DHT22;72561;48.336;14.472;2024-02-16T01:19:15;23.60;39.50
63371;DHT22;72561;48.336;14.472;2024-02-16T01:20:56;23.60;39.50
63371;DHT22;72561;48.336;14.472;2024-02-16T01:22:37;23.60;39.50
63371;DHT22;72561;48.336;14.472;2024-02-16T01:24:18;23.60;39.40
63371;DHT22;72561;48.336;14.472;2024-02-16T01:25:59;23.60;39.40
63371;DHT22;72561;48.336;14.472;2024-02-16T01:27:41;23.60;39.40
63371;DHT22;72561;48.336;14.472;2024-02-16T01:29:22;23.60;39.40
63371;DHT22;72561;48.336;14.472;2024-02-16T01:31:04;23.50;39.40
63371;DHT22;72561;48.336;14.472;2024-02-16T01:32:46;23.60;39.40
63371;DHT22;72561;48.336;14.472;2024-02-16T01:34:27;23.60;39.50
63371;DHT22;72561;48.336;14.472;2024-02-16T01:36:08;23.50;39.40
63371;DHT22;72561;48.336;14.472;2024-02-16T01:37:49;23.50;39.40
63371;DHT22;72561;48.336;14.472;2024-02-16T01:39:30;23.50;39.30
63371;DHT22;72561;48.336;14.472;2024-02-16T01:41:12;23.50;39.40
63371;DHT22;72561;48.336;14.472;2024-02-16T01:42:53;23.50;39.40
63371;DHT22;72561;48.336;14.472;2024-02-16T01:44:34;23.50;39.40
63371;DHT22;72561;48.336;14.472;2024-02-16T01:46:17;23.50;39.40
63371;DHT22;72561;48.336;14.472;2024-02-16T01:47:58;23.50;39.40
63371;DHT22;72561;48.336;14.472;2024-02-16T01:49:39;23.50;39.40
63371;DHT22;72561;48.336;14.472;2024-02-16T01:51:22;23.50;39.40
63371;DHT22;72561;48.336;14.472;2024-02-16T01:53:04;23.50;39.40
63371;DHT22;72561;48.336;14.472;2024-02-16T01:54:45;23.50;39.40
63371;DHT22;72561;48.336;14.472;2024-02-16T01:56:27;23.50;40.10
63371;DHT22;72561;48.336;14.472;2024-02-16T01:58:08;23.50;39.50
63371;DHT22;72561;48.336;14.472;2024-02-16T01:59:49;23.50;39.50
63371;DHT22;72561;48.336;14.472;2024-02-16T02:01:32;23.50;39.40
63371;DHT22;72561;48.336;14.472;2024-02-16T02:03:13;23.50;39.40
63371;DHT22;72561;48.336;14.472;2024-02-16T02:04:54;23.50;39.40
63371;DHT22;72561;48.336;14.472;2024-02-16T02:06:35;23.50;39.40
63371;DHT22;72561;48.336;14.472;2024-02-16T02:08:17;23.50;39.40
63371;DHT22;72561;48.336;14.472;2024-02-16T02:09:58;23.50;39.40
63371;DHT22;72561;48.336;14.472;2024-02-16T02:11:39;23.50;39.40
63371;DHT22;72561;48.336;14.472;2024-02-16T02:13:20;23.50;39.40
63371;DHT22;72561;48.336;14.472;2024-02-16T02:15:01;23.50;39.40
63371;DHT22;72561;48.336;14.472;2024-02-16T02:16:44;23.50;39.40
63371;DHT22;72561;48.336;14.472;2024-02-16T02:18:25;23.50;39.40
63371;DHT22;72561;48.336;14.472;2024-02-16T02:20:07;23.50;39.50
63371;DHT22;72561;48.336;14.472;2024-02-16T02:21:49;23.40;39.30
63371;DHT22;72561;48.336;14.472;2024-02-16T02:23:31;23.40;39.30
63371;DHT22;72561;48.336;14.472;2024-02-16T02:25:12;23.50;39.40
63371;DHT22;72561;48.336;14.472;2024-02-16T02:26:53;23.50;39.40
63371;DHT22;72561;48.336;14.472;2024-02-16T02:28:34;23.50;39.40
63371;DHT22;72561;48.336;14.472;2024-02-16T02:30:16;23.40;39.40
63371;DHT22;72561;48.336;14.472;2024-02-16T02:31:57;23.40;39.30
63371;DHT22;72561;48.336;14.472;2024-02-16T02:33:38;23.50;39.40
63371;DHT22;72561;48.336;14.472;2024-02-16T02:35:19;23.40;39.30
63371;DHT22;72561;48.336;14.472;2024-02-16T02:37:00;23.40;39.30
63371;DHT22;72561;48.336;14.472;2024-02-16T02:38:43;23.40;39.30
63371;DHT22;72561;48.336;14.472;2024-02-16T02:40:24;23.40;39.30
63371;DHT22;72561;48.336;14.472;2024-02-16T02:42:05;23.40;39.30
63371;DHT22;72561;48.336;14.472;2024-02-16T02:43:46;23.40;39.30
63371;DHT22;72561;48.336;14.472;2024-02-16T02:45:28;23.40;39.30
63371;DHT22;72561;48.336;14.472;2024-02-16T02:47:09;23.40;39.30
63371;DHT22;72561;48.336;14.472;2024-02-16T02:48:50;23.40;39.30
63371;DHT22;72561;48.336;14.472;2024-02-16T02:50:31;23.40;39.30
63371;DHT22;72561;48.336;14.472;2024-02-16T02:52:12;23.40;39.30
63371;DHT22;72561;48.336;14.472;2024-02-16T02:53:55;23.40;39.20
63371;DHT22;72561;48.336;14.472;2024-02-16T02:55:36;23.30;39.20
63371;DHT22;72561;48.336;14.472;2024-02-16T02:57:17;23.30;39.20
63371;DHT22;72561;48.336;14.472;2024-02-16T02:58:58;23.30;39.20
63371;DHT22;72561;48.336;14.472;2024-02-16T03:00:39;23.30;39.20
63371;DHT22;72561;48.336;14.472;2024-02-16T03:02:23;23.40;39.30
63371;DHT22;72561;48.336;14.472;2024-02-16T03:04:04;23.30;39.20
63371;DHT22;72561;48.336;14.472;2024-02-16T03:05:45;23.40;39.30
63371;DHT22;72561;48.336;14.472;2024-02-16T03:07:27;23.30;39.20
63371;DHT22;72561;48.336;14.472;2024-02-16T03:09:10;23.30;39.20
63371;DHT22;72561;48.336;14.472;2024-02-16T03:10:52;23.30;39.20
63371;DHT22;72561;48.336;14.472;2024-02-16T03:12:33;23.30;39.20
63371;DHT22;72561;48.336;14.472;2024-02-16T03:14:14;23.30;39.20
63371;DHT22;72561;48.336;14.472;2024-02-16T03:15:55;23.30;39.20
63371;DHT22;72561;48.336;14.472;2024-02-16T03:17:36;23.30;39.20
63371;DHT22;72561;48.336;14.472;2024-02-16T03:19:18;23.30;39.20
63371;DHT22;72561;48.336;14.472;2024-02-16T03:20:59;23.30;39.10
63371;DHT22;72561;48.336;14.472;2024-02-16T03:22:40;23.30;39.10
63371;DHT22;72561;48.336;14.472;2024-02-16T03:24:22;23.30;39.10
63371;DHT22;72561;48.336;14.472;2024-02-16T03:26:03;23.30;39.10
63371;DHT22;72561;48.336;14.472;2024-02-16T03:27:45;23.30;39.20
63371;DHT22;72561;48.336;14.472;2024-02-16T03:29:26;23.30;39.10
63371;DHT22;72561;48.336;14.472;2024-02-16T03:31:14;23.30;39.00
63371;DHT22;72561;48.336;14.472;2024-02-16T03:32:56;23.30;39.00
63371;DHT22;72561;48.336;14.472;2024-02-16T03:34:38;23.30;39.00
63371;DHT22;72561;48.336;14.472;2024-02-16T03:36:19;23.30;39.00
63371;DHT22;72561;48.336;14.472;2024-02-16T03:38:01;23.30;38.90
63371;DHT22;72561;48.336;14.472;2024-02-16T03:39:43;23.30;38.90
63371;DHT22;72561;48.336;14.472;2024-02-16T03:41:24;23.30;38.90
63371;DHT22;72561;48.336;14.472;2024-02-16T03:43:05;23.30;38.90
63371;DHT22;72561;48.336;14.472;2024-02-16T03:44:46;23.30;39.00
63371;DHT22;72561;48.336;14.472;2024-02-16T03:46:27;23.30;38.90
63371;DHT22;72561;48.336;14.472;2024-02-16T03:48:09;23.30;38.90
63371;DHT22;72561;48.336;14.472;2024-02-16T03:49:50;23.20;38.80
63371;DHT22;72561;48.336;14.472;2024-02-16T03:51:32;23.30;38.80
63371;DHT22;72561;48.336;14.472;2024-02-16T03:53:13;23.30;38.90
63371;DHT22;72561;48.336;14.472;2024-02-16T03:54:56;23.30;38.90
63371;DHT22;72561;48.336;14.472;2024-02-16T03:56:37;23.30;38.90
63371;DHT22;72561;48.336;14.472;2024-02-16T03:58:18;23.30;38.80
63371;DHT22;72561;48.336;14.472;2024-02-16T04:00:00;23.30;38.80
63371;DHT22;72561;48.336;14.472;2024-02-16T04:01:41;23.30;38.80
63371;DHT22;72561;48.336;14.472;2024-02-16T04:03:22;23.30;38.80
63371;DHT22;72561;48.336;14.472;2024-02-16T04:05:04;23.30;38.80
63371;DHT22;72561;48.336;14.472;2024-02-16T04:06:45;23.30;38.80
63371;DHT22;72561;48.336;14.472;2024-02-16T04:08:26;23.30;38.80
63371;DHT22;72561;48.336;14.472;2024-02-16T04:10:09;23.30;38.80
63371;DHT22;72561;48.336;14.472;2024-02-16T04:11:50;23.30;38.80
63371;DHT22;72561;48.336;14.472;2024-02-16T04:13:32;23.30;38.90
63371;DHT22;72561;48.336;14.472;2024-02-16T04:15:13;23.30;38.80
63371;DHT22;72561;48.336;14.472;2024-02-16T04:16:54;23.30;38.80
63371;DHT22;72561;48.336;14.472;2024-02-16T04:18:35;23.30;38.80
63371;DHT22;72561;48.336;14.472;2024-02-16T04:20:16;23.30;38.80
63371;DHT22;72561;48.336;14.472;2024-02-16T04:21:57;23.30;38.80
63371;DHT22;72561;48.336;14.472;2024-02-16T04:23:39;23.30;38.80
63371;DHT22;72561;48.336;14.472;2024-02-16T04:25:21;23.30;38.70
63371;DHT22;72561;48.336;14.472;2024-02-16T04:27:02;23.30;38.70
63371;DHT22;72561;48.336;14.472;2024-02-16T04:28:43;23.30;38.70
63371;DHT22;72561;48.336;14.472;2024-02-16T04:30:25;23.30;38.60
63371;DHT22;72561;48.336;14.472;2024-02-16T04:32:06;23.30;38.60
63371;DHT22;72561;48.336;14.472;2024-02-16T04:33:47;23.30;38.70
63371;DHT22;72561;48.336;14.472;2024-02-16T04:35:28;23.30;38.70
63371;DHT22;72561;48.336;14.472;2024-02-16T04:37:09;23.30;38.70
63371;DHT22;72561;48.336;14.472;2024-02-16T04:38:50;23.30;38.70
63371;DHT22;72561;48.336;14.472;2024-02-16T04:40:36;23.30;38.70
63371;DHT22;72561;48.336;14.472;2024-02-16T04:42:18;23.30;38.70
63371;DHT22;72561;48.336;14.472;2024-02-16T04:43:59;23.30;38.80
63371;DHT22;72561;48.336;14.472;2024-02-16T04:45:40;23.30;39.80
63371;DHT22;72561;48.336;14.472;2024-02-16T04:47:21;23.30;40.10
63371;DHT22;72561;48.336;14.472;2024-02-16T04:49:02;23.30;40.20
63371;DHT22;72561;48.336;14.472;2024-02-16T04:50:43;23.30;39.90
63371;DHT22;72561;48.336;14.472;2024-02-16T04:52:25;23.30;39.60
63371;DHT22;72561;48.336;14.472;2024-02-16T04:54:06;23.30;39.50
63371;DHT22;72561;48.336;14.472;2024-02-16T04:55:49;23.30;39.40
63371;DHT22;72561;48.336;14.472;2024-02-16T04:57:30;23.40;39.40
63371;DHT22;72561;48.336;14.472;2024-02-16T04:59:11;23.30;39.30
63371;DHT22;72561;48.336;14.472;2024-02-16T05:00:52;23.30;39.30
63371;DHT22;72561;48.336;14.472;2024-02-16T05:02:33;23.30;39.30
63371;DHT22;72561;48.336;14.472;2024-02-16T05:04:14;23.30;39.20
63371;DHT22;72561;48.336;14.472;2024-02-16T05:05:57;23.30;39.20
63371;DHT22;72561;48.336;14.472;2024-02-16T05:07:39;23.40;39.30
63371;DHT22;72561;48.336;14.472;2024-02-16T05:09:20;23.30;39.20
63371;DHT22;72561;48.336;14.472;2024-02-16T05:11:03;23.30;39.20
63371;DHT22;72561;48.336;14.472;2024-02-16T05:12:44;23.30;39.10
63371;DHT22;72561;48.336;14.472;2024-02-16T05:14:26;23.30;39.10
63371;DHT22;72561;48.336;14.472;2024-02-16T05:16:08;23.30;39.10
63371;DHT22;72561;48.336;14.472;2024-02-16T05:17:49;23.30;39.10
63371;DHT22;72561;48.336;14.472;2024-02-16T05:19:32;23.30;39.10
63371;DHT22;72561;48.336;14.472;2024-02-16T05:21:14;23.30;39.00
63371;DHT22;72561;48.336;14.472;2024-02-16T05:22:57;23.30;39.10
63371;DHT22;72561;48.336;14.472;2024-02-16T05:24:38;23.30;39.00
63371;DHT22;72561;48.336;14.472;2024-02-16T05:26:20;23.30;39.00
63371;DHT22;72561;48.336;14.472;2024-02-16T05:28:01;23.30;39.00
63371;DHT22;72561;48.336;14.472;2024-02-16T05:29:43;23.30;39.00
63371;DHT22;72561;48.336;14.472;2024-02-16T05:31:24;23.30;39.00
63371;DHT22;72561;48.336;14.472;2024-02-16T05:33:05;23.30;39.00
63371;DHT22;72561;48.336;14.472;2024-02-16T05:34:47;23.30;39.00
63371;DHT22;72561;48.336;14.472;2024-02-16T05:36:28;23.30;39.00
63371;DHT22;72561;48.336;14.472;2024-02-16T05:38:09;23.30;39.00
63371;DHT22;72561;48.336;14.472;2024-02-16T05:39:56;23.30;39.00
63371;DHT22;72561;48.336;14.472;2024-02-16T05:41:39;23.30;39.00
63371;DHT22;72561;48.336;14.472;2024-02-16T05:43:21;23.30;39.10
63371;DHT22;72561;48.336;14.472;2024-02-16T05:45:02;23.30;38.80
63371;DHT22;72561;48.336;14.472;2024-02-16T05:46:44;23.20;37.80
63371;DHT22;72561;48.336;14.472;2024-02-16T05:48:26;23.20;37.50
63371;DHT22;72561;48.336;14.472;2024-02-16T05:50:08;23.20;37.50
63371;DHT22;72561;48.336;14.472;2024-02-16T05:51:50;23.20;37.60
63371;DHT22;72561;48.336;14.472;2024-02-16T05:53:31;23.10;37.50
63371;DHT22;72561;48.336;14.472;2024-02-16T05:55:13;23.10;37.40
63371;DHT22;72561;48.336;14.472;2024-02-16T05:56:57;23.10;37.40
63371;DHT22;72561;48.336;14.472;2024-02-16T05:58:38;23.10;37.40
63371;DHT22;72561;48.336;14.472;2024-02-16T06:00:20;23.10;37.40
63371;DHT22;72561;48.336;14.472;2024-02-16T06:02:02;23.10;37.50
63371;DHT22;72561;48.336;14.472;2024-02-16T06:03:43;23.10;37.60
63371;DHT22;72561;48.336;14.472;2024-02-16T06:05:25;23.00;37.50
63371;DHT22;72561;48.336;14.472;2024-02-16T06:07:06;23.00;37.60
63371;DHT22;72561;48.336;14.472;2024-02-16T06:08:48;23.00;37.70
63371;DHT22;72561;48.336;14.472;2024-02-16T06:10:29;23.00;37.70
63371;DHT22;72561;48.336;14.472;2024-02-16T06:12:12;23.00;37.80
63371;DHT22;72561;48.336;14.472;2024-02-16T06:13:53;23.00;37.80
63371;DHT22;72561;48.336;14.472;2024-02-16T06:15:35;23.00;37.90
63371;DHT22;72561;48.336;14.472;2024-02-16T06:17:16;23.00;37.90
63371;DHT22;72561;48.336;14.472;2024-02-16T06:18:57;22.90;37.80
63371;DHT22;72561;48.336;14.472;2024-02-16T06:20:38;22.90;37.90
63371;DHT22;72561;48.336;14.472;2024-02-16T06:22:20;23.00;38.00
63371;DHT22;72561;48.336;14.472;2024-02-16T06:24:01;22.90;37.90
63371;DHT22;72561;48.336;14.472;2024-02-16T06:25:42;22.90;37.90
63371;DHT22;72561;48.336;14.472;2024-02-16T06:27:24;22.90;38.00
63371;DHT22;72561;48.336;14.472;2024-02-16T06:29:05;22.90;38.00
63371;DHT22;72561;48.336;14.472;2024-02-16T06:30:46;22.90;38.00
63371;DHT22;72561;48.336;14.472;2024-02-16T06:32:27;22.90;38.00
63371;DHT22;72561;48.336;14.472;2024-02-16T06:34:09;22.90;38.10
63371;DHT22;72561;48.336;14.472;2024-02-16T06:35:50;22.90;38.00
63371;DHT22;72561;48.336;14.472;2024-02-16T06:37:31;22.90;38.00
63371;DHT22;72561;48.336;14.472;2024-02-16T06:39:12;22.90;38.00
63371;DHT22;72561;48.336;14.472;2024-02-16T06:40:54;22.90;38.00
63371;DHT22;72561;48.336;14.472;2024-02-16T06:42:37;22.90;38.00
63371;DHT22;72561;48.336;14.472;2024-02-16T06:44:19;22.90;38.00
63371;DHT22;72561;48.336;14.472;2024-02-16T06:46:00;22.90;38.00
63371;DHT22;72561;48.336;14.472;2024-02-16T06:47:41;22.90;38.00
63371;DHT22;72561;48.336;14.472;2024-02-16T06:49:22;22.90;38.80
63371;DHT22;72561;48.336;14.472;2024-02-16T06:51:03;22.90;38.10
63371;DHT22;72561;48.336;14.472;2024-02-16T06:52:44;22.90;38.20
63371;DHT22;72561;48.336;14.472;2024-02-16T06:54:25;22.90;38.20
63371;DHT22;72561;48.336;14.472;2024-02-16T06:56:07;22.90;38.10
63371;DHT22;72561;48.336;14.472;2024-02-16T06:57:49;22.90;38.10
63371;DHT22;72561;48.336;14.472;2024-02-16T06:59:30;22.80;38.00
63371;DHT22;72561;48.336;14.472;2024-02-16T07:01:12;22.90;38.20
63371;DHT22;72561;48.336;14.472;2024-02-16T07:02:54;22.80;38.00
63371;DHT22;72561;48.336;14.472;2024-02-16T07:04:35;22.90;38.00
63371;DHT22;72561;48.336;14.472;2024-02-16T07:06:16;22.90;38.00
63371;DHT22;72561;48.336;14.472;2024-02-16T07:07:57;22.90;38.00
63371;DHT22;72561;48.336;14.472;2024-02-16T07:09:38;22.90;38.00
63371;DHT22;72561;48.336;14.472;2024-02-16T07:11:19;22.90;38.00
63371;DHT22;72561;48.336;14.472;2024-02-16T07:13:02;22.80;38.00
63371;DHT22;72561;48.336;14.472;2024-02-16T07:14:43;22.80;38.00
63371;DHT22;72561;48.336;14.472;2024-02-16T07:16:24;22.80;38.00
63371;DHT22;72561;48.336;14.472;2024-02-16T07:18:05;22.80;38.00
63371;DHT22;72561;48.336;14.472;2024-02-16T07:19:46;22.80;38.00
63371;DHT22;72561;48.336;14.472;2024-02-16T07:21:27;22.80;38.00
63371;DHT22;72561;48.336;14.472;2024-02-16T07:23:08;22.80;38.00
63371;DHT22;72561;48.336;14.472;2024-02-16T07:24:50;22.80;38.00
63371;DHT22;72561;48.336;14.472;2024-02-16T07:26:31;22.80;38.00
63371;DHT22;72561;48.336;14.472;2024-02-16T07:28:13;22.80;38.00
63371;DHT22;72561;48.336;14.472;2024-02-16T07:29:54;22.80;38.00
63371;DHT22;72561;48.336;14.472;2024-02-16T07:31:35;22.80;38.00
63371;DHT22;72561;48.336;14.472;2024-02-16T07:33:16;22.80;38.00
63371;DHT22;72561;48.336;14.472;2024-02-16T07:34:59;22.80;38.00
63371;DHT22;72561;48.336;14.472;2024-02-16T07:36:40;22.80;38.00
63371;DHT22;72561;48.336;14.472;2024-02-16T07:38:21;22.80;38.00
63371;DHT22;72561;48.336;14.472;2024-02-16T07:40:02;22.80;38.00
63371;DHT22;72561;48.336;14.472;2024-02-16T07:41:44;22.80;38.00
63371;DHT22;72561;48.336;14.472;2024-02-16T07:43:28;22.80;38.00
63371;DHT22;72561;48.336;14.472;2024-02-16T07:45:09;22.80;38.00
63371;DHT22;72561;48.336;14.472;2024-02-16T07:46:50;22.80;38.00
63371;DHT22;72561;48.336;14.472;2024-02-16T07:48:31;22.80;38.00
63371;DHT22;72561;48.336;14.472;2024-02-16T07:50:12;22.80;38.10
63371;DHT22;72561;48.336;14.472;2024-02-16T07:51:54;22.80;38.10
63371;DHT22;72561;48.336;14.472;2024-02-16T07:53:35;22.80;38.10
63371;DHT22;72561;48.336;14.472;2024-02-16T07:55:16;22.80;38.10
63371;DHT22;72561;48.336;14.472;2024-02-16T07:56:57;22.80;38.10
63371;DHT22;72561;48.336;14.472;2024-02-16T07:58:41;22.80;38.10
63371;DHT22;72561;48.336;14.472;2024-02-16T08:00:22;22.80;38.10
63371;DHT22;72561;48.336;14.472;2024-02-16T08:02:04;22.80;38.10
63371;DHT22;72561;48.336;14.472;2024-02-16T08:04:27;22.80;37.60
63371;DHT22;72561;48.336;14.472;2024-02-16T08:06:08;22.80;38.20
63371;DHT22;72561;48.336;14.472;2024-02-16T08:07:49;22.90;38.20
63371;DHT22;72561;48.336;14.472;2024-02-16T08:09:30;22.80;38.10
63371;DHT22;72561;48.336;14.472;2024-02-16T08:11:12;22.80;38.20
63371;DHT22;72561;48.336;14.472;2024-02-16T08:12:53;22.80;38.20
63371;DHT22;72561;48.336;14.472;2024-02-16T08:14:34;22.80;38.20
63371;DHT22;72561;48.336;14.472;2024-02-16T08:16:15;22.80;38.20
63371;DHT22;72561;48.336;14.472;2024-02-16T08:17:56;22.80;38.20
63371;DHT22;72561;48.336;14.472;2024-02-16T08:19:39;22.80;38.30
63371;DHT22;72561;48.336;14.472;2024-02-16T08:21:20;22.80;38.30
63371;DHT22;72561;48.336;14.472;2024-02-16T08:23:02;22.80;38.30
63371;DHT22;72561;48.336;14.472;2024-02-16T08:24:43;22.80;38.30
63371;DHT22;72561;48.336;14.472;2024-02-16T08:26:25;22.90;38.40
63371;DHT22;72561;48.336;14.472;2024-02-16T08:28:06;22.80;38.40
63371;DHT22;72561;48.336;14.472;2024-02-16T08:29:47;22.80;38.40
63371;DHT22;72561;48.336;14.472;2024-02-16T08:31:28;22.80;38.40
63371;DHT22;72561;48.336;14.472;2024-02-16T08:33:15;22.80;38.40
63371;DHT22;72561;48.336;14.472;2024-02-16T08:34:58;22.80;38.40
63371;DHT22;72561;48.336;14.472;2024-02-16T08:36:39;22.80;38.50
63371;DHT22;72561;48.336;14.472;2024-02-16T08:38:20;22.80;38.50
63371;DHT22;72561;48.336;14.472;2024-02-16T08:40:01;22.80;38.50
63371;DHT22;72561;48.336;14.472;2024-02-16T08:41:43;22.80;38.60
63371;DHT22;72561;48.336;14.472;2024-02-16T08:43:24;22.80;38.50
63371;DHT22;72561;48.336;14.472;2024-02-16T08:45:06;22.80;38.50
63371;DHT22;72561;48.336;14.472;2024-02-16T08:46:48;22.80;38.50
63371;DHT22;72561;48.336;14.472;2024-02-16T08:48:29;22.80;38.60
63371;DHT22;72561;48.336;14.472;2024-02-16T08:50:12;22.80;38.60
63371;DHT22;72561;48.336;14.472;2024-02-16T08:51:53;22.80;38.60
63371;DHT22;72561;48.336;14.472;2024-02-16T08:53:34;22.80;38.60
63371;DHT22;72561;48.336;14.472;2024-02-16T08:55:16;22.80;38.60
63371;DHT22;72561;48.336;14.472;2024-02-16T08:56:57;22.80;38.60
63371;DHT22;72561;48.336;14.472;2024-02-16T08:58:41;22.80;38.60
63371;DHT22;72561;48.336;14.472;2024-02-16T09:00:25;22.80;38.60
63371;DHT22;72561;48.336;14.472;2024-02-16T09:02:06;22.80;38.70
63371;DHT22;72561;48.336;14.472;2024-02-16T09:03:48;22.80;38.70
63371;DHT22;72561;48.336;14.472;2024-02-16T09:05:39;22.80;38.70
63371;DHT22;72561;48.336;14.472;2024-02-16T09:07:20;22.80;38.70
63371;DHT22;72561;48.336;14.472;2024-02-16T09:09:03;22.80;38.70
63371;DHT22;72561;48.336;14.472;2024-02-16T09:10:44;22.80;38.80
63371;DHT22;72561;48.336;14.472;2024-02-16T09:12:25;22.80;38.80
63371;DHT22;72561;48.336;14.472;2024-02-16T09:14:06;22.80;38.80
63371;DHT22;72561;48.336;14.472;2024-02-16T09:15:47;22.80;38.80
63371;DHT22;72561;48.336;14.472;2024-02-16T09:17:29;22.80;38.80
63371;DHT22;72561;48.336;14.472;2024-02-16T09:19:10;22.80;38.80
63371;DHT22;72561;48.336;14.472;2024-02-16T09:20:52;22.80;38.80
63371;DHT22;72561;48.336;14.472;2024-02-16T09:22:33;22.80;38.80
63371;DHT22;72561;48.336;14.472;2024-02-16T09:24:14;22.80;38.90
63371;DHT22;72561;48.336;14.472;2024-02-16T09:25:56;22.80;38.80
63371;DHT22;72561;48.336;14.472;2024-02-16T09:27:37;22.80;38.90
63371;DHT22;72561;48.336;14.472;2024-02-16T09:29:18;22.80;38.80
63371;DHT22;72561;48.336;14.472;2024-02-16T09:30:59;22.80;38.90
63371;DHT22;72561;48.336;14.472;2024-02-16T09:32:40;22.80;38.90
63371;DHT22;72561;48.336;14.472;2024-02-16T09:34:21;22.80;38.90
63371;DHT22;72561;48.336;14.472;2024-02-16T09:36:04;22.80;38.90
63371;DHT22;72561;48.336;14.472;2024-02-16T09:37:45;22.90;39.00
63371;DHT22;72561;48.336;14.472;2024-02-16T09:39:26;22.80;38.90
63371;DHT22;72561;48.336;14.472;2024-02-16T09:41:07;22.80;38.90
63371;DHT22;72561;48.336;14.472;2024-02-16T09:42:52;22.80;39.00
63371;DHT22;72561;48.336;14.472;2024-02-16T09:44:36;22.80;39.60
63371;DHT22;72561;48.336;14.472;2024-02-16T09:46:24;22.90;39.00
63371;DHT22;72561;48.336;14.472;2024-02-16T09:48:16;22.80;39.00
63371;DHT22;72561;48.336;14.472;2024-02-16T09:49:57;22.90;39.00
63371;DHT22;72561;48.336;14.472;2024-02-16T09:51:40;22.80;39.00
63371;DHT22;72561;48.336;14.472;2024-02-16T09:53:24;22.90;39.10
63371;DHT22;72561;48.336;14.472;2024-02-16T09:55:08;22.80;39.00
63371;DHT22;72561;48.336;14.472;2024-02-16T09:56:52;22.80;39.00
63371;DHT22;72561;48.336;14.472;2024-02-16T09:58:33;22.80;39.00
63371;DHT22;72561;48.336;14.472;2024-02-16T10:00:15;22.80;39.00
63371;DHT22;72561;48.336;14.472;2024-02-16T10:02:00;22.80;39.00
63371;DHT22;72561;48.336;14.472;2024-02-16T10:03:43;22.90;39.10
63371;DHT22;72561;48.336;14.472;2024-02-16T10:05:24;22.80;39.00
63371;DHT22;72561;48.336;14.472;2024-02-16T10:07:07;22.80;39.10
63371;DHT22;72561;48.336;14.472;2024-02-16T10:08:48;22.80;39.10
63371;DHT22;72561;48.336;14.472;2024-02-16T10:10:29;22.80;39.00
63371;DHT22;72561;48.336;14.472;2024-02-16T10:12:10;22.80;39.10
63371;DHT22;72561;48.336;14.472;2024-02-16T10:14:00;22.80;39.10
63371;DHT22;72561;48.336;14.472;2024-02-16T10:15:42;22.80;39.10
63371;DHT22;72561;48.336;14.472;2024-02-16T10:17:23;22.80;39.10
63371;DHT22;72561;48.336;14.472;2024-02-16T10:19:05;22.80;39.20
63371;DHT22;72561;48.336;14.472;2024-02-16T10:20:49;22.80;39.20
63371;DHT22;72561;48.336;14.472;2024-02-16T10:22:31;22.80;39.20
63371;DHT22;72561;48.336;14.472;2024-02-16T10:24:13;22.80;39.20
63371;DHT22;72561;48.336;14.472;2024-02-16T10:25:54;22.80;39.20
63371;DHT22;72561;48.336;14.472;2024-02-16T10:27:35;22.80;39.30
63371;DHT22;72561;48.336;14.472;2024-02-16T10:29:19;22.80;39.30
63371;DHT22;72561;48.336;14.472;2024-02-16T10:31:02;22.80;39.30
63371;DHT22;72561;48.336;14.472;2024-02-16T10:32:43;22.80;39.30